Time,TemperatureF,DewpointF,PressureIn,WindDirection,WindDirectionDegrees,WindSpeedMPH,WindSpeedGustMPH,Humidity,HourlyPrecipIn,Conditions,Clouds,dailyrainin,SoftwareType,DateUTC
2013-05-16 00:09:00,57.9,44.1,29.66,WNW,292,0.0,-999.0,60,-99.99,,,0.00,Acu-Link.com,2013-05-16 04:09:00,
2013-05-16 00:24:00,56.3,43.9,29.66,WNW,292,0.0,-999.0,63,-99.99,,,0.00,Acu-Link.com,2013-05-16 04:24:00,
2013-05-16 00:40:00,54.9,44.5,29.66,WSW,247,0.0,-999.0,68,-99.99,,,0.00,Acu-Link.com,2013-05-16 04:40:00,
2013-05-16 00:55:00,53.6,43.7,29.66,SW,225,0.0,-999.0,69,-99.99,,,0.00,Acu-Link.com,2013-05-16 04:55:00,
2013-05-16 01:11:00,52.2,43.8,29.66,South,180,0.0,-999.0,73,-99.99,,,0.00,Acu-Link.com,2013-05-16 05:11:00,
2013-05-16 01:26:00,51.1,43.5,29.67,SW,225,0.0,-999.0,75,-99.99,,,0.00,Acu-Link.com,2013-05-16 05:26:00,
2013-05-16 01:41:00,49.8,43.2,29.67,SW,225,0.0,-999.0,78,-99.99,,,0.00,Acu-Link.com,2013-05-16 05:41:00,
2013-05-16 01:56:00,48.9,43.0,29.67,SSW,202,0.0,-999.0,80,-99.99,,,0.00,Acu-Link.com,2013-05-16 05:56:00,
2013-05-16 02:12:00,48.2,43.6,29.67,South,180,0.0,-999.0,84,-99.99,,,0.00,Acu-Link.com,2013-05-16 06:12:00,
2013-05-16 02:27:00,47.7,44.0,29.68,South,180,0.0,-999.0,87,-99.99,,,0.00,Acu-Link.com,2013-05-16 06:27:00,
2013-05-16 02:42:00,47.1,44.0,29.67,WSW,247,0.0,-999.0,89,-99.99,,,0.00,Acu-Link.com,2013-05-16 06:42:00,
2013-05-16 02:58:00,46.6,43.5,29.67,SW,225,0.0,-999.0,89,-99.99,,,0.00,Acu-Link.com,2013-05-16 06:58:00,
2013-05-16 03:13:00,46.0,43.2,29.67,South,180,0.0,-999.0,90,-99.99,,,0.00,Acu-Link.com,2013-05-16 07:13:00,
2013-05-16 03:29:00,45.5,42.7,29.68,SSW,202,0.0,-999.0,90,-99.99,,,0.00,Acu-Link.com,2013-05-16 07:29:00,
2013-05-16 03:44:00,45.1,42.6,29.68,West,270,0.0,-999.0,91,-99.99,,,0.00,Acu-Link.com,2013-05-16 07:44:00,
2013-05-16 03:59:00,45.0,42.8,29.68,South,180,0.0,-999.0,92,-99.99,,,0.00,Acu-Link.com,2013-05-16 07:59:00,
2013-05-16 04:15:00,44.8,42.9,29.69,SSW,202,0.0,-999.0,93,-99.99,,,0.00,Acu-Link.com,2013-05-16 08:15:00,
2013-05-16 04:30:00,44.2,42.0,29.69,SSW,202,0.0,-999.0,92,-99.99,,,0.00,Acu-Link.com,2013-05-16 08:30:00,
2013-05-16 04:45:00,43.9,42.0,29.69,SSW,202,0.0,-999.0,93,-99.99,,,0.00,Acu-Link.com,2013-05-16 08:45:00,
2013-05-16 05:00:00,43.7,41.8,29.70,SW,225,0.0,-999.0,93,-99.99,,,0.00,Acu-Link.com,2013-05-16 09:00:00,
2013-05-16 05:15:00,43.3,41.7,29.70,SW,225,0.0,-999.0,94,-99.99,,,0.00,Acu-Link.com,2013-05-16 09:15:00,
2013-05-16 05:31:00,43.3,41.7,29.71,WSW,247,0.0,-999.0,94,-99.99,,,0.00,Acu-Link.com,2013-05-16 09:31:00,
2013-05-16 05:46:00,43.5,42.2,29.71,WSW,247,0.0,-999.0,95,-99.99,,,0.00,Acu-Link.com,2013-05-16 09:46:00,
2013-05-16 06:02:00,43.3,42.0,29.71,SSW,202,0.0,-999.0,95,-99.99,,,0.00,Acu-Link.com,2013-05-16 10:02:00,
2013-05-16 06:17:00,43.3,42.0,29.72,NNW,337,0.0,-999.0,95,-99.99,,,0.00,Acu-Link.com,2013-05-16 10:17:00,
2013-05-16 06:32:00,43.7,42.6,29.72,WNW,292,0.0,-999.0,96,-99.99,,,0.00,Acu-Link.com,2013-05-16 10:32:00,
2013-05-16 06:47:00,44.2,43.1,29.72,SW,225,0.0,-999.0,96,-99.99,,,0.00,Acu-Link.com,2013-05-16 10:47:00,
2013-05-16 07:03:00,45.1,44.0,29.72,West,270,0.0,-999.0,96,-99.99,,,0.00,Acu-Link.com,2013-05-16 11:03:00,
2013-05-16 07:19:00,46.6,45.5,29.72,WSW,247,0.0,-999.0,96,-99.99,,,0.00,Acu-Link.com,2013-05-16 11:19:00,
2013-05-16 07:35:00,49.3,48.2,29.73,WNW,292,0.0,-999.0,96,-99.99,,,0.00,Acu-Link.com,2013-05-16 11:35:00,
2013-05-16 07:50:00,52.2,48.8,29.73,SW,225,0.0,-999.0,88,-99.99,,,0.00,Acu-Link.com,2013-05-16 11:50:00,
2013-05-16 08:05:00,54.7,48.0,29.73,South,180,2.7,-999.0,78,-99.99,,,0.00,Acu-Link.com,2013-05-16 12:05:00,
2013-05-16 08:20:00,58.8,47.9,29.74,West,270,2.7,-999.0,67,-99.99,,,0.00,Acu-Link.com,2013-05-16 12:20:00,
2013-05-16 08:35:00,61.0,47.0,29.74,SW,225,2.7,-999.0,60,-99.99,,,0.00,Acu-Link.com,2013-05-16 12:35:00,
2013-05-16 08:51:00,62.4,47.4,29.74,SW,225,2.2,-999.0,58,-99.99,,,0.00,Acu-Link.com,2013-05-16 12:51:00,
2013-05-16 09:06:00,63.9,46.4,29.75,West,270,3.7,-999.0,53,-99.99,,,0.00,Acu-Link.com,2013-05-16 13:06:00,
2013-05-16 09:21:00,65.3,46.7,29.75,West,270,1.7,-999.0,51,-99.99,,,0.00,Acu-Link.com,2013-05-16 13:21:00,
2013-05-16 09:37:00,66.9,47.6,29.75,SW,225,2.7,-999.0,50,-99.99,,,0.00,Acu-Link.com,2013-05-16 13:37:00,
2013-05-16 09:52:00,67.5,48.2,29.75,NNW,337,0.0,-999.0,50,-99.99,,,0.00,Acu-Link.com,2013-05-16 13:52:00,
2013-05-16 10:07:00,69.1,49.7,29.76,West,270,2.7,-999.0,50,-99.99,,,0.00,Acu-Link.com,2013-05-16 14:07:00,
2013-05-16 10:23:00,70.0,48.8,29.76,NE,45,3.7,-999.0,47,-99.99,,,0.00,Acu-Link.com,2013-05-16 14:23:00,
2013-05-16 10:38:00,71.4,47.7,29.76,NNW,337,3.7,-999.0,43,-99.99,,,0.00,Acu-Link.com,2013-05-16 14:38:00,
2013-05-16 10:53:00,72.5,46.8,29.76,NNE,22,3.7,-999.0,40,-99.99,,,0.00,Acu-Link.com,2013-05-16 14:53:00,
2013-05-16 11:08:00,73.2,48.1,29.76,NNW,337,2.2,-999.0,41,-99.99,,,0.00,Acu-Link.com,2013-05-16 15:08:00,
2013-05-16 11:24:00,73.8,46.6,29.76,SSW,202,1.1,-999.0,38,-99.99,,,0.00,Acu-Link.com,2013-05-16 15:24:00,
2013-05-16 11:39:00,73.9,46.0,29.76,WSW,247,4.2,-999.0,37,-99.99,,,0.00,Acu-Link.com,2013-05-16 15:39:00,
2013-05-16 11:54:00,74.3,44.9,29.77,NNE,22,3.7,-999.0,35,-99.99,,,0.00,Acu-Link.com,2013-05-16 15:54:00,
2013-05-16 12:09:00,74.5,45.8,29.77,WNW,292,2.7,-999.0,36,-99.99,,,0.00,Acu-Link.com,2013-05-16 16:09:00,
2013-05-16 12:25:00,74.7,46.0,29.77,WSW,247,2.2,-999.0,36,-99.99,,,0.00,Acu-Link.com,2013-05-16 16:25:00,
2013-05-16 12:40:00,75.6,47.5,29.77,NNE,22,1.7,-999.0,37,-99.99,,,0.00,Acu-Link.com,2013-05-16 16:40:00,
2013-05-16 12:55:00,76.5,49.0,29.77,NNE,22,5.3,-999.0,38,-99.99,,,0.00,Acu-Link.com,2013-05-16 16:55:00,
2013-05-16 13:10:00,76.6,45.3,29.77,WNW,292,2.2,-999.0,33,-99.99,,,0.00,Acu-Link.com,2013-05-16 17:10:00,
2013-05-16 13:25:00,77.5,45.3,29.77,NNW,337,5.3,-999.0,32,-99.99,,,0.00,Acu-Link.com,2013-05-16 17:25:00,
2013-05-16 13:41:00,77.4,44.4,29.76,NNW,337,3.7,-999.0,31,-99.99,,,0.00,Acu-Link.com,2013-05-16 17:41:00,
2013-05-16 13:56:00,77.4,43.5,29.76,WNW,292,2.2,-999.0,30,-99.99,,,0.00,Acu-Link.com,2013-05-16 17:56:00,
2013-05-16 14:11:00,77.5,45.3,29.76,South,180,2.2,-999.0,32,-99.99,,,0.00,Acu-Link.com,2013-05-16 18:11:00,
2013-05-16 14:27:00,77.7,44.6,29.76,ESE,112,2.2,-999.0,31,-99.99,,,0.00,Acu-Link.com,2013-05-16 18:27:00,
2013-05-16 14:42:00,78.4,46.1,29.76,SW,225,2.2,-999.0,32,-99.99,,,0.00,Acu-Link.com,2013-05-16 18:42:00,
2013-05-16 14:57:00,78.4,44.4,29.76,West,270,1.7,-999.0,30,-99.99,,,0.00,Acu-Link.com,2013-05-16 18:57:00,
2013-05-16 15:12:00,78.8,46.4,29.76,WSW,247,3.7,-999.0,32,-99.99,,,0.00,Acu-Link.com,2013-05-16 19:12:00,
2013-05-16 15:28:00,78.6,45.4,29.76,NE,45,0.0,-999.0,31,-99.99,,,0.00,Acu-Link.com,2013-05-16 19:28:00,
2013-05-16 15:43:00,76.8,43.0,29.76,NNE,22,1.7,-999.0,30,-99.99,,,0.00,Acu-Link.com,2013-05-16 19:43:00,
2013-05-16 15:58:00,78.1,45.0,29.76,NNE,22,3.7,-999.0,31,-99.99,,,0.00,Acu-Link.com,2013-05-16 19:58:00,
2013-05-16 16:13:00,78.4,44.4,29.76,West,270,3.2,-999.0,30,-99.99,,,0.00,Acu-Link.com,2013-05-16 20:13:00,
2013-05-16 16:29:00,77.2,44.2,29.75,West,270,2.2,-999.0,31,-99.99,,,0.00,Acu-Link.com,2013-05-16 20:29:00,
2013-05-16 16:44:00,78.3,43.4,29.75,NNW,337,2.7,-999.0,29,-99.99,,,0.00,Acu-Link.com,2013-05-16 20:44:00,
2013-05-16 17:00:00,79.2,43.3,29.75,WSW,247,2.2,-999.0,28,-99.99,,,0.00,Acu-Link.com,2013-05-16 21:00:00,
2013-05-16 17:15:00,78.8,42.9,29.75,SSW,202,0.0,-999.0,28,-99.99,,,0.00,Acu-Link.com,2013-05-16 21:15:00,
2013-05-16 17:30:00,78.4,44.4,29.75,North,0,4.2,-999.0,30,-99.99,,,0.00,Acu-Link.com,2013-05-16 21:30:00,
2013-05-16 17:46:00,78.6,43.7,29.75,NNW,337,3.7,-999.0,29,-99.99,,,0.00,Acu-Link.com,2013-05-16 21:46:00,
2013-05-16 18:01:00,78.3,43.4,29.75,NNE,22,3.7,-999.0,29,-99.99,,,0.00,Acu-Link.com,2013-05-16 22:01:00,
2013-05-16 18:17:00,77.9,44.0,29.76,NE,45,2.2,-999.0,30,-99.99,,,0.00,Acu-Link.com,2013-05-16 22:17:00,
2013-05-16 18:32:00,79.0,44.9,29.75,NNW,337,2.7,-999.0,30,-99.99,,,0.00,Acu-Link.com,2013-05-16 22:32:00,
2013-05-16 18:47:00,78.4,43.5,29.76,WNW,292,1.7,-999.0,29,-99.99,,,0.00,Acu-Link.com,2013-05-16 22:47:00,
2013-05-16 19:03:00,77.5,43.6,29.76,NNW,337,4.7,-999.0,30,-99.99,,,0.00,Acu-Link.com,2013-05-16 23:03:00,
2013-05-16 19:18:00,76.8,43.0,29.76,ENE,67,1.1,-999.0,30,-99.99,,,0.00,Acu-Link.com,2013-05-16 23:18:00,
2013-05-16 19:33:00,76.3,43.4,29.76,NNW,337,1.7,-999.0,31,-99.99,,,0.00,Acu-Link.com,2013-05-16 23:33:00,
2013-05-16 19:49:00,75.0,41.5,29.77,ENE,67,2.7,-999.0,30,-99.99,,,0.00,Acu-Link.com,2013-05-16 23:49:00,
2013-05-16 20:04:00,73.6,41.9,29.78,NE,45,4.2,-999.0,32,-99.99,,,0.00,Acu-Link.com,2013-05-17 00:04:00,
2013-05-16 20:19:00,71.4,44.5,29.79,ENE,67,2.2,-999.0,38,-99.99,,,0.00,Acu-Link.com,2013-05-17 00:19:00,
2013-05-16 20:35:00,69.4,44.7,29.80,ESE,112,0.0,-999.0,41,-99.99,,,0.00,Acu-Link.com,2013-05-17 00:35:00,
2013-05-16 20:50:00,67.3,43.4,29.81,North,0,3.2,-999.0,42,-99.99,,,0.00,Acu-Link.com,2013-05-17 00:50:00,
2013-05-16 21:05:00,65.7,43.8,29.82,ESE,112,1.1,-999.0,45,-99.99,,,0.00,Acu-Link.com,2013-05-17 01:05:00,
2013-05-16 21:21:00,63.9,42.7,29.83,East,90,2.2,-999.0,46,-99.99,,,0.00,Acu-Link.com,2013-05-17 01:21:00,
2013-05-16 21:36:00,62.4,42.4,29.84,NE,45,1.1,-999.0,48,-99.99,,,0.00,Acu-Link.com,2013-05-17 01:36:00,
2013-05-16 21:51:00,60.8,41.5,29.85,ESE,112,3.2,-999.0,49,-99.99,,,0.00,Acu-Link.com,2013-05-17 01:51:00,
2013-05-16 22:06:00,59.5,40.8,29.86,NW,315,1.7,-999.0,50,-99.99,,,0.00,Acu-Link.com,2013-05-17 02:06:00,
2013-05-16 22:22:00,58.3,39.7,29.86,ESE,112,1.7,-999.0,50,-99.99,,,0.00,Acu-Link.com,2013-05-17 02:22:00,
2013-05-16 22:37:00,57.0,39.6,29.88,ESE,112,1.1,-999.0,52,-99.99,,,0.00,Acu-Link.com,2013-05-17 02:37:00,
2013-05-16 22:52:00,56.1,38.2,29.88,West,270,4.2,-999.0,51,-99.99,,,0.00,Acu-Link.com,2013-05-17 02:52:00,
2013-05-16 23:07:00,55.4,38.1,29.89,ESE,112,1.7,-999.0,52,-99.99,,,0.00,Acu-Link.com,2013-05-17 03:07:00,
2013-05-16 23:22:00,54.3,38.5,29.89,ESE,112,1.1,-999.0,55,-99.99,,,0.00,Acu-Link.com,2013-05-17 03:22:00,
2013-05-16 23:38:00,53.8,38.0,29.90,NNE,22,2.7,-999.0,55,-99.99,,,0.00,Acu-Link.com,2013-05-17 03:38:00,
2013-05-16 23:53:00,53.1,37.8,29.90,SE,135,1.7,-999.0,56,-99.99,,,0.00,Acu-Link.com,2013-05-17 03:53:00,